Time;durP1;ratioP1;P1;durP2;ratioP2;P2;SDS_P1;SDS_P2;PMS_P1;PMS_P2;Temp;Humidity;BMP_temperature;BMP_pressure;BME280_temperature;BME280_humidity;BME280_pressure;Samples;Min_cycle;Max_cycle;Signal;HPM_P1;HPM_P2
2022/11/04 00:03:53;;;;;;;4.37;1.90;;;;;9.00;99704.00;;;;10377435;28;20250;-78
2022/11/04 00:08:56;;;;;;;4.70;1.43;;;;;8.90;99700.00;;;;10383646;28;20186;-78
2022/11/04 00:13:58;;;;;;;5.80;1.43;;;;;8.80;99704.00;;;;10383027;28;20691;-77
2022/11/04 00:19:01;;;;;;;7.70;1.30;;;;;8.80;99709.00;;;;10399626;28;20187;-78
2022/11/04 00:29:24;;;;;;;4.33;1.47;;;;;8.70;99717.00;;;;10383041;28;20198;-78
2022/11/04 00:34:26;;;;;;;2.87;1.33;;;;;8.60;99706.00;;;;10387033;28;20203;-77
2022/11/04 00:39:28;;;;;;;2.90;1.40;;;;;8.50;99721.00;;;;10356960;28;20192;-78
2022/11/04 00:44:30;;;;;;;2.77;1.10;;;;;8.30;99725.00;;;;10324425;28;20772;-78
2022/11/04 00:49:32;;;;;;;4.97;1.27;;;;;8.30;99745.00;;;;10357716;28;20248;-78
2022/11/04 00:54:34;;;;;;;3.10;0.97;;;;;8.20;99749.00;;;;10372596;28;20611;-77
2022/11/04 00:59:36;;;;;;;3.37;1.40;;;;;8.20;99744.00;;;;10380500;28;20552;-77
2022/11/04 01:04:38;;;;;;;8.57;1.47;;;;;8.30;99749.00;;;;10380969;28;20229;-78
2022/11/04 01:09:40;;;;;;;4.30;1.20;;;;;8.40;99755.00;;;;10340296;28;20254;-78
2022/11/04 01:14:42;;;;;;;3.83;1.20;;;;;8.50;99751.00;;;;10356613;28;20183;-77
2022/11/04 01:19:44;;;;;;;3.43;1.37;;;;;8.60;99749.00;;;;10365232;28;20198;-78
2022/11/04 01:24:52;;;;;;;6.03;1.30;;;;;8.60;99751.00;;;;10614204;27;20640;-77
2022/11/04 01:29:53;;;;;;;3.60;1.27;;;;;8.50;99739.00;;;;10501520;28;20236;-77
2022/11/04 01:34:55;;;;;;;5.03;1.17;;;;;8.40;99754.00;;;;10501960;28;20219;-77
2022/11/04 01:39:58;;;;;;;8.03;1.73;;;;;8.40;99750.00;;;;10554064;28;20199;-76
2022/11/04 01:45:00;;;;;;;4.50;1.50;;;;;8.30;99742.00;;;;10520821;28;20184;-77
2022/11/04 01:50:15;;;;;;;4.13;1.10;;;;;8.20;99747.00;;;;10554104;28;20195;-77
2022/11/04 01:55:21;;;;;;;4.50;1.57;;;;;8.20;99752.00;;;;10513747;28;20594;-76
2022/11/04 02:00:23;;;;;;;6.60;1.33;;;;;8.30;99739.00;;;;10478177;28;20209;-77
2022/11/04 02:05:28;;;;;;;6.83;1.90;;;;;8.30;99746.00;;;;10441234;28;20225;-77
2022/11/04 02:10:31;;;;;;;2.77;1.20;;;;;8.30;99747.00;;;;10459978;28;20207;-77
2022/11/04 02:15:38;;;;;;;6.33;1.67;;;;;8.20;99736.00;;;;10477751;28;20189;-76
2022/11/04 02:20:59;;;;;;;4.87;1.57;;;;;8.10;99737.00;;;;10494179;28;20205;-76
2022/11/04 02:26:40;;;;;;;4.00;1.43;;;;;8.00;99735.00;;;;10477541;28;20235;-77
2022/11/04 02:31:42;;;;;;;7.27;1.83;;;;;8.00;99739.00;;;;10475043;28;20198;-77
2022/11/04 02:37:21;;;;;;;3.47;1.63;;;;;8.00;99735.00;;;;10435410;28;20200;-77
2022/11/04 02:42:52;;;;;;;5.47;1.80;;;;;8.00;99740.00;;;;10403838;28;20221;-77
2022/11/04 02:48:06;;;;;;;6.80;1.83;;;;;8.00;99729.00;;;;10407844;28;20202;-76
2022/11/04 02:53:20;;;;;;;6.60;2.50;;;;;8.10;99721.00;;;;10408092;28;20637;-76
2022/11/04 02:58:33;;;;;;;7.77;1.63;;;;;8.20;99726.00;;;;10424048;28;20202;-77
2022/11/04 03:03:41;;;;;;;5.23;1.43;;;;;8.30;99717.00;;;;10428090;28;20249;-77
2022/11/04 03:08:47;;;;;;;4.33;2.00;;;;;8.30;99728.00;;;;10448281;28;20190;-77
2022/11/04 03:13:56;;;;;;;5.27;2.17;;;;;8.40;99705.00;;;;10481624;28;20240;-77
2022/11/04 03:19:12;;;;;;;4.93;2.20;;;;;8.40;99695.00;;;;10423121;28;20194;-77
2022/11/04 03:24:14;;;;;;;5.63;2.33;;;;;8.40;99697.00;;;;10479458;28;20733;-77
2022/11/04 03:29:28;;;;;;;6.53;2.20;;;;;8.50;99708.00;;;;10431216;28;20189;-76
2022/11/04 03:34:30;;;;;;;4.30;2.30;;;;;8.50;99711.00;;;;10480537;28;20189;-77
2022/11/04 03:39:32;;;;;;;3.50;2.17;;;;;8.50;99725.00;;;;10479454;28;20189;-76
2022/11/04 03:44:34;;;;;;;9.73;3.13;;;;;8.50;99720.00;;;;10445605;28;20675;-77
2022/11/04 03:49:36;;;;;;;8.90;2.60;;;;;8.50;99729.00;;;;10463577;28;20193;-77
2022/11/04 03:54:38;;;;;;;6.93;2.70;;;;;8.50;99729.00;;;;10446995;28;20185;-77
2022/11/04 03:59:55;;;;;;;6.40;2.60;;;;;8.60;99729.00;;;;10446111;28;20602;-76
2022/11/04 04:05:01;;;;;;;6.40;2.53;;;;;8.70;99721.00;;;;10445709;28;20221;-77
2022/11/04 04:15:59;;;;;;;7.17;2.47;;;;;8.80;99731.00;;;;10452235;28;20240;-77
2022/11/04 04:21:05;;;;;;;5.43;2.80;;;;;8.80;99729.00;;;;10424204;28;20896;-77
2022/11/04 04:31:51;;;;;;;9.07;2.43;;;;;8.80;99730.00;;;;10440054;28;20240;-77
2022/11/04 04:37:04;;;;;;;6.93;2.30;;;;;8.90;99739.00;;;;10438613;28;20209;-77
2022/11/04 04:47:41;;;;;;;7.90;2.50;;;;;8.90;99736.00;;;;10438228;28;20587;-77
2022/11/04 04:52:46;;;;;;;6.47;2.50;;;;;9.00;99739.00;;;;10405074;28;20197;-77
2022/11/04 04:57:48;;;;;;;8.77;2.70;;;;;9.00;99739.00;;;;10423916;28;20190;-77
2022/11/04 05:02:50;;;;;;;5.33;2.30;;;;;9.00;99745.00;;;;10477377;28;20205;-77
2022/11/04 05:07:52;;;;;;;7.40;2.40;;;;;9.00;99752.00;;;;10435699;28;20202;-77
2022/11/04 05:18:14;;;;;;;5.90;2.40;;;;;9.00;99757.00;;;;10453374;28;20193;-77
2022/11/04 05:23:16;;;;;;;7.17;2.30;;;;;9.00;99753.00;;;;10459959;28;20263;-77
2022/11/04 05:28:18;;;;;;;7.77;2.90;;;;;9.00;99750.00;;;;10443545;28;20182;-77
2022/11/04 05:33:20;;;;;;;6.40;2.30;;;;;9.00;99764.00;;;;10427204;28;20668;-77
2022/11/04 05:38:22;;;;;;;8.03;2.17;;;;;9.10;99771.00;;;;10427194;28;20632;-77
2022/11/04 05:43:24;;;;;;;9.23;2.57;;;;;9.10;99781.00;;;;10427225;28;20328;-77
2022/11/04 05:48:27;;;;;;;5.77;3.17;;;;;9.10;99779.00;;;;10476284;28;20189;-77
2022/11/04 05:53:28;;;;;;;7.97;2.63;;;;;9.10;99783.00;;;;10459286;28;20194;-76
2022/11/04 05:58:30;;;;;;;9.03;2.00;;;;;9.10;99788.00;;;;10442853;28;20331;-76
2022/11/04 06:03:32;;;;;;;9.27;2.37;;;;;9.20;99792.00;;;;10455376;28;20232;-76
2022/11/04 06:08:34;;;;;;;8.07;2.30;;;;;9.10;99803.00;;;;10388130;28;20202;-75
2022/11/04 06:13:36;;;;;;;9.27;2.30;;;;;9.10;99817.00;;;;10440828;28;20198;-75
2022/11/04 06:18:38;;;;;;;8.20;2.20;;;;;9.10;99823.00;;;;10411901;28;20204;-76
2022/11/04 06:23:43;;;;;;;3.90;2.27;;;;;9.10;99827.00;;;;10440100;28;20221;-76
2022/11/04 06:28:45;;;;;;;9.93;2.13;;;;;9.10;99829.00;;;;10448764;28;20185;-76
2022/11/04 06:33:47;;;;;;;10.77;2.43;;;;;9.10;99839.00;;;;10449266;28;20560;-76
2022/11/04 06:38:49;;;;;;;9.67;2.57;;;;;9.20;99836.00;;;;10465649;28;20181;-76
2022/11/04 06:43:51;;;;;;;7.90;2.50;;;;;9.20;99852.00;;;;10464953;28;20251;-76
2022/11/04 06:48:54;;;;;;;6.57;3.13;;;;;9.20;99861.00;;;;10432421;28;20663;-76
2022/11/04 06:53:56;;;;;;;5.80;2.30;;;;;9.30;99860.00;;;;10448479;28;20193;-76
2022/11/04 06:58:58;;;;;;;10.93;2.73;;;;;9.40;99862.00;;;;10464977;28;20193;-76
2022/11/04 07:04:02;;;;;;;11.90;2.97;;;;;9.40;99858.00;;;;10427787;28;20630;-76
2022/11/04 07:09:03;;;;;;;9.03;2.90;;;;;9.50;99878.00;;;;10447591;28;20198;-76
2022/11/04 07:14:07;;;;;;;6.43;3.10;;;;;9.50;99875.00;;;;10431214;28;20534;-76
2022/11/04 07:19:09;;;;;;;5.53;2.93;;;;;9.50;99873.00;;;;10480413;28;20174;-76
2022/11/04 07:24:11;;;;;;;6.63;2.50;;;;;9.50;99875.00;;;;10446815;28;20229;-76
2022/11/04 07:29:13;;;;;;;9.80;3.20;;;;;9.50;99878.00;;;;10463799;28;20193;-77
2022/11/04 07:34:15;;;;;;;6.30;2.97;;;;;9.50;99885.00;;;;10437936;28;20191;-76
2022/11/04 07:39:17;;;;;;;9.20;3.07;;;;;9.70;99899.00;;;;10457032;28;20252;-76
2022/11/04 07:44:21;;;;;;;8.00;3.70;;;;;9.90;99900.00;;;;10455176;28;20211;-76
2022/11/04 07:49:24;;;;;;;10.87;3.53;;;;;10.10;99903.00;;;;10421999;28;20201;-76
2022/11/04 07:54:26;;;;;;;9.37;4.30;;;;;10.10;99905.00;;;;10454397;28;20648;-76
2022/11/04 07:59:30;;;;;;;7.60;4.13;;;;;10.10;99909.00;;;;10405436;28;20198;-76
2022/11/04 08:04:32;;;;;;;8.03;3.27;;;;;10.10;99918.00;;;;10450491;28;20224;-76
2022/11/04 08:09:35;;;;;;;10.33;2.70;;;;;10.10;99929.00;;;;10462032;28;20197;-76
2022/11/04 08:14:37;;;;;;;8.63;3.17;;;;;10.20;99942.00;;;;10478880;28;20182;-76
2022/11/04 08:19:39;;;;;;;8.83;3.60;;;;;10.20;99944.00;;;;10462359;28;20259;-77
2022/11/04 08:24:41;;;;;;;12.07;4.77;;;;;10.30;99962.00;;;;10478965;28;20703;-77
2022/11/04 08:29:43;;;;;;;10.07;3.77;;;;;10.50;99972.00;;;;10428678;28;20648;-77
2022/11/04 08:34:45;;;;;;;8.77;3.07;;;;;10.60;99979.00;;;;10415791;28;20194;-77
2022/11/04 08:39:47;;;;;;;11.27;4.30;;;;;10.50;99986.00;;;;10403907;28;20191;-77
2022/11/04 08:44:52;;;;;;;7.47;3.73;;;;;10.40;99986.00;;;;10420242;28;20253;-77
2022/11/04 08:49:54;;;;;;;9.03;3.83;;;;;10.40;99994.00;;;;10457659;28;20197;-77
2022/11/04 08:54:55;;;;;;;10.97;4.20;;;;;10.40;100005.00;;;;10460868;28;20701;-77
2022/11/04 08:59:58;;;;;;;9.70;3.40;;;;;10.50;100011.00;;;;10460913;28;20190;-77
2022/11/04 09:05:00;;;;;;;13.20;3.87;;;;;10.50;100015.00;;;;10444445;28;20217;-77
2022/11/04 09:10:04;;;;;;;13.23;3.57;;;;;10.60;100015.00;;;;10460406;28;20194;-77
2022/11/04 09:15:07;;;;;;;8.47;3.77;;;;;10.80;100030.00;;;;10460632;28;20218;-77
2022/11/04 09:20:11;;;;;;;8.27;3.30;;;;;10.90;100029.00;;;;10476659;28;20235;-77
2022/11/04 09:25:12;;;;;;;11.47;3.23;;;;;11.10;100031.00;;;;10459676;28;20324;-77
2022/11/04 09:30:14;;;;;;;6.70;3.27;;;;;11.30;100042.00;;;;10444038;28;20190;-78
2022/11/04 09:35:17;;;;;;;9.23;3.93;;;;;11.60;100038.00;;;;10443994;28;20235;-78
2022/11/04 09:40:22;;;;;;;10.13;3.83;;;;;12.00;100045.00;;;;10426872;28;20194;-78
2022/11/04 09:45:30;;;;;;;10.57;3.80;;;;;12.40;100054.00;;;;10449365;28;20213;-78
2022/11/04 09:50:44;;;;;;;7.63;4.87;;;;;12.90;100061.00;;;;10434187;28;20225;-79
2022/11/04 09:55:53;;;;;;;14.20;4.50;;;;;13.70;100082.00;;;;10447226;28;20182;-78
2022/11/04 10:01:27;;;;;;;14.83;4.50;;;;;13.90;100095.00;;;;10450113;28;20734;-79
2022/11/04 10:06:57;;;;;;;15.10;4.27;;;;;13.40;100095.00;;;;10450607;28;20217;-78
2022/11/04 10:12:03;;;;;;;8.57;4.17;;;;;13.00;100116.00;;;;10425839;28;20189;-79
2022/11/04 10:17:30;;;;;;;9.80;4.40;;;;;12.90;100111.00;;;;10393788;28;20191;-78
2022/11/04 10:22:40;;;;;;;9.47;4.20;;;;;12.70;100113.00;;;;10408815;28;20312;-79
2022/11/04 10:27:45;;;;;;;14.73;4.73;;;;;12.60;100127.00;;;;10392520;28;20194;-79
2022/11/04 10:32:57;;;;;;;7.80;4.23;;;;;12.30;100137.00;;;;10439975;28;20197;-78
2022/11/04 10:38:21;;;;;;;7.73;4.60;;;;;12.10;100151.00;;;;10424802;28;20656;-78
2022/11/04 10:43:37;;;;;;;8.13;4.30;;;;;11.90;100151.00;;;;10424205;28;20237;-78
2022/11/04 10:48:48;;;;;;;9.33;4.50;;;;;11.80;100162.00;;;;10427261;28;20335;-79
2022/11/04 10:53:56;;;;;;;10.80;5.20;;;;;11.70;100176.00;;;;10464819;28;20246;-78
2022/11/04 10:59:12;;;;;;;11.07;5.90;;;;;11.70;100176.00;;;;10424446;28;20194;-78
2022/11/04 11:04:28;;;;;;;12.03;5.60;;;;;11.80;100179.00;;;;10437753;28;20217;-79
2022/11/04 11:09:39;;;;;;;9.90;5.87;;;;;12.10;100190.00;;;;10464324;28;20227;-79
2022/11/04 11:14:42;;;;;;;12.13;5.60;;;;;12.20;100185.00;;;;10442762;28;20192;-79
2022/11/04 11:19:51;;;;;;;13.50;5.63;;;;;12.20;100188.00;;;;10476298;28;20204;-79
2022/11/04 11:24:53;;;;;;;12.13;7.07;;;;;12.30;100179.00;;;;10464075;28;20230;-79
2022/11/04 11:29:55;;;;;;;14.10;6.43;;;;;12.60;100176.00;;;;10431480;28;20186;-79
2022/11/04 11:35:00;;;;;;;14.50;6.97;;;;;13.00;100181.00;;;;10431802;28;20271;-79
2022/11/04 11:40:05;;;;;;;11.10;7.37;;;;;13.20;100181.00;;;;10439707;28;20191;-79
2022/11/04 11:45:15;;;;;;;14.13;7.70;;;;;13.00;100186.00;;;;10480175;28;20259;-79
2022/11/04 11:50:19;;;;;;;13.73;8.07;;;;;12.60;100192.00;;;;10446876;28;20201;-79
2022/11/04 11:55:25;;;;;;;12.93;7.83;;;;;12.30;100207.00;;;;10462531;28;20189;-79
2022/11/04 12:00:32;;;;;;;20.17;9.17;;;;;12.30;100221.00;;;;10430421;28;20194;-79
2022/11/04 12:05:50;;;;;;;16.40;8.87;;;;;12.30;100231.00;;;;10446344;28;20214;-79
2022/11/04 12:11:22;;;;;;;18.23;9.67;;;;;12.60;100233.00;;;;10437629;28;20269;-79
2022/11/04 12:16:51;;;;;;;15.60;10.17;;;;;13.10;100240.00;;;;10388754;28;20281;-79
2022/11/04 12:22:02;;;;;;;18.20;11.37;;;;;12.90;100242.00;;;;10422542;28;20726;-79
2022/11/04 12:27:17;;;;;;;22.83;13.37;;;;;13.20;100250.00;;;;10445223;28;20204;-79
2022/11/04 12:32:19;;;;;;;23.17;11.53;;;;;13.50;100254.00;;;;10445320;28;20185;-80
2022/11/04 12:37:27;;;;;;;16.80;10.93;;;;;14.20;100266.00;;;;10445670;28;20705;-80
2022/11/04 12:42:48;;;;;;;20.33;12.03;;;;;13.60;100277.00;;;;10445672;28;20251;-80
2022/11/04 12:47:54;;;;;;;20.23;11.70;;;;;13.30;100270.00;;;;10461661;28;20201;-80
2022/11/04 12:53:20;;;;;;;13.83;10.37;;;;;13.60;100279.00;;;;10461079;28;20182;-79
2022/11/04 12:59:16;;;;;;;16.80;10.17;;;;;13.40;100284.00;;;;10428176;28;20200;-80
2022/11/04 13:04:37;;;;;;;16.77;10.63;;;;;13.00;100297.00;;;;10339940;28;20242;-80
2022/11/04 13:09:52;;;;;;;15.90;10.07;;;;;12.70;100293.00;;;;10423738;28;20186;-79
2022/11/04 13:15:06;;;;;;;13.53;9.30;;;;;12.70;100310.00;;;;10444083;28;20185;-80
2022/11/04 13:20:14;;;;;;;16.37;9.77;;;;;12.60;100315.00;;;;10443919;28;20197;-80
2022/11/04 13:25:20;;;;;;;15.73;9.93;;;;;12.70;100325.00;;;;10444124;28;20216;-80
2022/11/04 13:30:28;;;;;;;14.27;8.70;;;;;12.90;100336.00;;;;10427555;28;20212;-80
2022/11/04 13:35:49;;;;;;;14.03;8.90;;;;;12.90;100343.00;;;;10423702;28;20193;-80
2022/11/04 13:41:21;;;;;;;16.87;10.80;;;;;13.10;100355.00;;;;10419754;28;20853;-80
2022/11/04 13:46:30;;;;;;;14.37;10.07;;;;;13.00;100363.00;;;;10420442;28;20211;-80
2022/11/04 13:51:37;;;;;;;12.67;9.63;;;;;13.40;100363.00;;;;10457336;28;20197;-80
2022/11/04 13:56:40;;;;;;;14.73;9.63;;;;;13.50;100374.00;;;;10427681;28;20170;-80
2022/11/04 14:01:42;;;;;;;13.47;7.93;;;;;13.90;100381.00;;;;10427212;28;20190;-79
2022/11/04 14:06:56;;;;;;;12.00;8.53;;;;;13.80;100377.00;;;;10475860;28;20557;-77
2022/11/04 14:12:15;;;;;;;12.37;6.67;;;;;12.40;100406.00;;;;10475388;28;20205;-76
2022/11/04 14:17:33;;;;;;;9.20;6.03;;;;;11.80;100418.00;;;;10418463;28;20182;-76
2022/11/04 14:23:01;;;;;;;10.30;6.03;;;;;11.60;100418.00;;;;10418283;28;20214;-76
2022/11/04 14:28:09;;;;;;;8.03;5.40;;;;;11.70;100415.00;;;;10386599;28;20190;-76
2022/11/04 14:33:33;;;;;;;7.87;4.60;;;;;11.70;100435.00;;;;10409181;28;20182;-76
2022/11/04 14:38:34;;;;;;;7.37;4.10;;;;;11.60;100446.00;;;;10411614;28;20194;-77
2022/11/04 14:43:41;;;;;;;2.50;2.30;;;;;11.60;100449.00;;;;10425128;28;20210;-77
2022/11/04 14:48:50;;;;;;;3.70;2.50;;;;;11.40;100459.00;;;;10413182;28;20285;-77
2022/11/04 14:54:02;;;;;;;3.70;1.73;;;;;11.40;100463.00;;;;10442599;28;20720;-77
2022/11/04 14:59:05;;;;;;;2.17;0.90;;;;;11.10;100471.00;;;;10465120;28;20202;-77
2022/11/04 15:04:20;;;;;;;2.17;0.80;;;;;11.00;100485.00;;;;10458682;28;20253;-77
2022/11/04 15:09:26;;;;;;;2.30;0.90;;;;;10.90;100493.00;;;;10481195;28;20240;-77
2022/11/04 15:14:27;;;;;;;2.13;0.97;;;;;10.70;100506.00;;;;10431975;28;20303;-78
2022/11/04 15:19:33;;;;;;;2.23;0.73;;;;;10.60;100514.00;;;;10481634;28;20204;-78
2022/11/04 15:24:35;;;;;;;1.53;0.90;;;;;10.50;100510.00;;;;10448121;28;20221;-78
2022/11/04 15:29:37;;;;;;;3.03;1.03;;;;;10.40;100525.00;;;;10447297;28;20194;-78
2022/11/04 15:34:39;;;;;;;2.47;1.20;;;;;10.30;100533.00;;;;10422313;28;20652;-78
2022/11/04 15:39:47;;;;;;;3.33;1.10;;;;;10.30;100541.00;;;;10422928;28;20236;-78
2022/11/04 15:44:53;;;;;;;3.20;1.23;;;;;10.20;100540.00;;;;10406476;28;20202;-78
2022/11/04 15:50:19;;;;;;;2.63;1.50;;;;;10.20;100542.00;;;;10421898;28;20645;-78
2022/11/04 15:55:25;;;;;;;2.90;1.67;;;;;10.00;100541.00;;;;10428684;28;20186;-78
2022/11/04 16:00:27;;;;;;;3.27;1.90;;;;;9.90;100557.00;;;;10446676;28;20185;-78
2022/11/04 16:05:34;;;;;;;3.23;1.90;;;;;9.80;100565.00;;;;10426909;28;20842;-78
2022/11/04 16:10:36;;;;;;;2.57;1.63;;;;;9.70;100577.00;;;;10429863;28;20205;-78
2022/11/04 16:15:47;;;;;;;2.07;1.50;;;;;9.70;100596.00;;;;10446042;28;20192;-78
2022/11/04 16:20:52;;;;;;;3.53;2.30;;;;;9.60;100609.00;;;;10429076;28;20251;-78
2022/11/04 16:26:00;;;;;;;3.90;2.07;;;;;9.60;100593.00;;;;10429161;28;20267;-79
2022/11/04 16:31:21;;;;;;;5.43;1.87;;;;;9.60;100601.00;;;;10445170;28;20182;-79
2022/11/04 16:36:25;;;;;;;6.07;2.03;;;;;9.60;100596.00;;;;10417865;28;20202;-79
2022/11/04 16:41:37;;;;;;;2.63;1.97;;;;;9.60;100602.00;;;;10419914;28;20198;-78
2022/11/04 16:46:39;;;;;;;6.13;3.03;;;;;9.60;100611.00;;;;10419749;28;20214;-78
2022/11/04 16:51:41;;;;;;;8.90;3.07;;;;;9.60;100617.00;;;;10419068;28;20190;-79
2022/11/04 16:56:44;;;;;;;6.40;2.97;;;;;9.60;100617.00;;;;10470505;28;20186;-79
2022/11/04 17:01:46;;;;;;;6.03;2.87;;;;;9.50;100626.00;;;;10460547;28;20200;-79
2022/11/04 17:06:48;;;;;;;6.47;2.80;;;;;9.50;100628.00;;;;10460704;28;20297;-78
2022/11/04 17:11:50;;;;;;;7.70;4.23;;;;;9.40;100641.00;;;;10445008;28;20228;-79
2022/11/04 17:16:52;;;;;;;4.97;3.03;;;;;9.30;100639.00;;;;10427223;28;20193;-78
2022/11/04 17:21:54;;;;;;;5.57;2.40;;;;;9.30;100642.00;;;;10460118;28;20197;-79
2022/11/04 17:26:56;;;;;;;5.53;3.10;;;;;9.20;100647.00;;;;10460113;28;20214;-79
2022/11/04 17:31:58;;;;;;;5.47;3.27;;;;;9.10;100666.00;;;;10443791;28;20202;-80
2022/11/04 17:37:00;;;;;;;4.27;2.50;;;;;9.00;100679.00;;;;10459834;28;20284;-79
2022/11/04 17:47:23;;;;;;;3.17;2.87;;;;;8.80;100689.00;;;;10443433;28;20192;-79
2022/11/04 17:52:25;;;;;;;2.87;2.43;;;;;8.70;100700.00;;;;10459777;28;20185;-79
2022/11/04 17:57:27;;;;;;;5.33;2.60;;;;;8.50;100712.00;;;;10417306;28;20657;-79
2022/11/04 18:02:29;;;;;;;8.50;3.63;;;;;8.30;100720.00;;;;10418412;28;20837;-79
2022/11/04 18:07:31;;;;;;;5.10;3.87;;;;;8.10;100735.00;;;;10421224;28;20300;-79
2022/11/04 18:12:35;;;;;;;5.97;3.77;;;;;8.00;100735.00;;;;10410258;28;20194;-79
2022/11/04 18:17:39;;;;;;;9.40;4.03;;;;;7.90;100741.00;;;;10425816;28;20191;-79
2022/11/04 18:22:41;;;;;;;6.83;4.03;;;;;7.80;100744.00;;;;10409011;28;20701;-79
2022/11/04 18:27:43;;;;;;;7.40;3.87;;;;;7.70;100746.00;;;;10425063;28;20198;-79
2022/11/04 18:32:45;;;;;;;5.20;3.23;;;;;7.60;100752.00;;;;10409275;28;20560;-79
2022/11/04 18:37:47;;;;;;;7.97;4.17;;;;;7.50;100756.00;;;;10436447;28;20248;-79
2022/11/04 18:42:49;;;;;;;6.23;3.93;;;;;7.50;100749.00;;;;10408410;28;20250;-79
2022/11/04 18:47:51;;;;;;;6.90;3.50;;;;;7.40;100767.00;;;;10392635;28;20201;-79
2022/11/04 18:52:54;;;;;;;6.87;3.67;;;;;7.30;100771.00;;;;10410624;28;20193;-79
2022/11/04 18:57:56;;;;;;;6.73;4.00;;;;;7.30;100775.00;;;;10432650;28;20205;-79
2022/11/04 19:02:58;;;;;;;7.57;4.33;;;;;7.30;100784.00;;;;10448449;28;20217;-79
2022/11/04 19:08:00;;;;;;;8.13;4.23;;;;;7.20;100787.00;;;;10481621;28;20206;-79
2022/11/04 19:13:17;;;;;;;17.27;9.10;;;;;7.10;100796.00;;;;10464905;28;20264;-79
2022/11/04 19:18:19;;;;;;;17.27;9.37;;;;;7.00;100804.00;;;;10406494;28;20240;-79
2022/11/04 19:23:21;;;;;;;10.67;6.37;;;;;6.90;100818.00;;;;10406702;28;20213;-79
2022/11/04 19:28:23;;;;;;;17.43;10.87;;;;;6.90;100821.00;;;;10447763;28;20197;-79
2022/11/04 19:33:46;;;;;;;12.83;8.17;;;;;7.00;100826.00;;;;10442173;28;20197;-79
2022/11/04 19:38:53;;;;;;;10.13;6.73;;;;;7.10;100835.00;;;;10407042;28;20186;-79
2022/11/04 19:43:55;;;;;;;13.20;7.63;;;;;7.20;100838.00;;;;10446987;28;20300;-79
2022/11/04 19:48:58;;;;;;;12.03;7.57;;;;;7.20;100848.00;;;;10463632;28;20173;-78
2022/11/04 19:54:01;;;;;;;13.63;6.60;;;;;7.20;100850.00;;;;10446159;28;20186;-79
2022/11/04 19:59:04;;;;;;;15.67;6.83;;;;;7.20;100847.00;;;;10446339;28;20194;-79
2022/11/04 20:04:09;;;;;;;12.40;6.90;;;;;7.10;100856.00;;;;10430363;28;20255;-79
2022/11/04 20:09:11;;;;;;;12.10;8.13;;;;;7.10;100851.00;;;;10429252;28;20676;-79
2022/11/04 20:14:16;;;;;;;12.67;7.17;;;;;7.00;100859.00;;;;10430480;28;20190;-79
2022/11/04 20:19:18;;;;;;;11.87;7.03;;;;;7.00;100859.00;;;;10447868;28;20522;-79
2022/11/04 20:24:24;;;;;;;13.57;6.63;;;;;7.00;100869.00;;;;10431153;28;20314;-79
2022/11/04 20:29:26;;;;;;;10.13;6.93;;;;;7.00;100887.00;;;;10446339;28;20194;-79
2022/11/04 20:34:29;;;;;;;12.63;7.43;;;;;7.00;100892.00;;;;10434935;28;20601;-78
2022/11/04 20:39:33;;;;;;;12.73;7.27;;;;;7.10;100902.00;;;;10420732;28;20225;-79
2022/11/04 20:44:35;;;;;;;14.17;9.43;;;;;7.10;100905.00;;;;10403274;28;20260;-79
2022/11/04 20:49:37;;;;;;;15.73;8.03;;;;;7.10;100915.00;;;;10407625;28;20308;-79
2022/11/04 20:54:39;;;;;;;13.73;8.37;;;;;7.10;100944.00;;;;10428147;28;20197;-79
2022/11/04 20:59:41;;;;;;;15.43;9.27;;;;;7.20;100940.00;;;;10478313;28;20578;-79
2022/11/04 21:04:43;;;;;;;19.27;8.80;;;;;7.30;100954.00;;;;10414524;28;20214;-78
2022/11/04 21:09:45;;;;;;;13.40;8.87;;;;;7.50;100972.00;;;;10412106;28;20197;-79
2022/11/04 21:14:47;;;;;;;21.93;8.70;;;;;7.60;100980.00;;;;10427946;28;20186;-78
2022/11/04 21:19:49;;;;;;;12.90;8.60;;;;;7.50;100981.00;;;;10460483;28;20235;-79
2022/11/04 21:24:50;;;;;;;13.20;9.23;;;;;7.40;100981.00;;;;10493342;28;20271;-78
2022/11/04 21:29:52;;;;;;;12.93;8.13;;;;;7.30;100985.00;;;;10460014;28;20616;-79
2022/11/04 21:34:54;;;;;;;12.07;7.77;;;;;7.30;100990.00;;;;10428657;28;20190;-79
2022/11/04 21:39:56;;;;;;;14.33;7.83;;;;;7.20;100993.00;;;;10407699;28;20198;-79
2022/11/04 21:44:58;;;;;;;12.60;7.73;;;;;7.20;100995.00;;;;10426871;28;20534;-79
2022/11/04 21:50:00;;;;;;;13.33;7.60;;;;;7.10;100988.00;;;;10435107;28;20201;-78
2022/11/04 21:55:02;;;;;;;13.87;7.40;;;;;7.00;100992.00;;;;10430389;28;20190;-79
2022/11/04 22:00:06;;;;;;;18.23;8.43;;;;;6.90;101001.00;;;;10434966;28;20288;-78
2022/11/04 22:05:12;;;;;;;16.20;8.33;;;;;7.00;101001.00;;;;10450741;28;20233;-78
2022/11/04 22:10:14;;;;;;;17.53;8.27;;;;;7.00;101007.00;;;;10409554;28;20191;-78
2022/11/04 22:20:37;;;;;;;15.47;8.10;;;;;7.10;101015.00;;;;10445141;28;20221;-77
2022/11/04 22:25:39;;;;;;;14.87;8.97;;;;;7.20;101018.00;;;;10466905;28;20216;-77
2022/11/04 22:30:41;;;;;;;16.43;8.17;;;;;7.20;101014.00;;;;10466252;28;20200;-77
2022/11/04 22:35:45;;;;;;;12.93;8.47;;;;;7.30;101019.00;;;;10445258;28;20198;-77
2022/11/04 22:40:53;;;;;;;16.70;9.40;;;;;7.20;101021.00;;;;10425429;28;20722;-77
2022/11/04 22:45:56;;;;;;;14.43;9.23;;;;;7.10;101021.00;;;;10408352;28;20576;-77
2022/11/04 22:50:58;;;;;;;19.70;8.87;;;;;7.00;101017.00;;;;10407369;28;20204;-77
2022/11/04 22:56:02;;;;;;;16.00;8.87;;;;;6.80;101018.00;;;;10440763;28;20175;-77
2022/11/04 23:01:07;;;;;;;11.83;8.17;;;;;6.70;101017.00;;;;10400481;28;20185;-77
2022/11/04 23:06:10;;;;;;;14.73;7.70;;;;;6.60;101014.00;;;;10464720;28;20677;-77
2022/11/04 23:32:40;;;;;;;11.30;7.23;;;;;6.90;101015.00;;;;10423385;28;20637;-77
2022/11/04 23:37:42;;;;;;;11.87;7.23;;;;;6.90;101016.00;;;;10464446;28;20225;-77
2022/11/04 23:42:44;;;;;;;11.23;6.80;;;;;6.80;101016.00;;;;10464052;28;20193;-77
